Ana Sayfa
METAR-TAF:

METAR-TAF

Havaalanları :

Caracas, Venezuela

Enlem: 10-36N, Boylam: 066-59W, yükseklik: 43 m

Güncel hava durumu gözlemi

Rapor saat 05:00 UTC de 30 dakika önce yapıldı.
Sakin rüzgar
Sıcaklık 24°C
Nem 78%
Basınç 1012 hPa
Görüş mesafesi 10 km veya daha fazla
1600 ft yükseklikte az bulutlu

METAR: SVMI 200500Z 00000KT 9999 FEW016 24/20 Q1012

Saat: 01:30 (05:30 UTC)

Tahmin

Rapor saat 22:00 UTC de 7 saat ve 30 dakika önce yapıldı.
Ayın 20'si saat 00 UTC'den ayın 21'si saat 00 UTC'ye kadar geçerli Tahmin
Rüzgar doğudan 10 kt
Görüş mesafesi 10 km veya daha fazla
1600 ft yükseklikte az bulutlu
Dönüşüyor
ayın 20'si saat 00 UTC'den ayın 20'si saat 04 UTC'ye kadar
Rüzgar doğudan 5 kt
1600 ft yükseklikte parçalı bulutlu

TAF: SVMI 192200Z 2000/2100 09010KT 9999 FEW016 TX33/19Z TN24/09Z BECMG 2000/2004 08005KT SCT016

4.000'den fazla havaalanı için hava durumu gözlemleri ve tahminleri (METAR ve TAF raporları).

Kullanılabilir istasyonlar harita üzerinde sarı ve kırmızı noktalarla gösterilir.

İstasyonun adını görmek için fareyi noktanın üzerinde gezdirin.

Sonrasında hava gözlem ve tahminlerini görmek için tıklayın.

Haritayı değiştirmek için: yaklaştırmak için siyah artı işaretli yeşil düğmeye ve uzaklaştırmak için de eksi işaretli düğmeye hızla tıklayın; bitişik haritalar için yeşil okları kullanın.


METAR-TAF: